LGAVLGMK

Guest
Details From LGAV - Athens Intl Airport Elefterios Venizel
To LGMK - Mikonos
Flight Number -
Tags generated
Created
Modified
Stats Distance 73 nm / 136 km
Max Altitude 0 ft / 0 m
Waypoints 2
Social Downloads 2
Likes 0
Share VATSIM

Download

Looking for another format? Having issues loading an existing format? Contact us
Advertisement - Login to hide

Notes

Basic altitude profile: - Ascent Rate: 1800ft/min - Ascent Speed: 250kts - Cruise Altitude: 15000ft - Cruise Speed: 420kts - Descent Rate: 1800ft/min - Descent Speed: 250kts Options: - Use NATs: yes - Use PACOTS: yes - Use low airways: no - Use high airways: no

Route

LGAV LGMK

ID Type Via Altitude (ft/m) Position (lat/lon) Dist (leg/tot) Name
O LGAV APT - 0 / 0 37.93636 / 23.94447 - / 0 nm Athens Intl Airport Elefterios Venizel
O LGMK APT - 0 / 0 37.43539 / 25.34814 73 / 73 nm Mikonos

Altitude Profile

Advertisement - Login to hide

LGAV

Details ICAO LGAV (ATH)
Name Athens Eleftherios Venizelos
Region Greece
Timezone Europe/Athens (UTC+3.0)
Stats Elevation 308 ft / 94 m (AMSL)
Location 37.936700° 23.944500°
Runways 2
Magnetic Variation 4.624° E

METAR

LGAV 231050Z 07009KT 040V100 CAVOK 25/09 Q1011 NOSIG

Decode

TAF

TAF TAF LGAV 230500Z 2306/2406 VRB05KT 9999 FEW025 BECMG 2308/2310 12010KT BECMG 2318/2320 27008KT

Decode

Departure Runways

ID Width Length Bearing (true/mag) Surface Threshold Overrun Markings Lighting
03L 151 ft / 46 m 12,478 ft / 3,803 m 36.86° / 32.23° ASPHALT 984 ft / 300 m 394 ft / 120 m PREC-APP CENTERLINE EDGE THRESHOLD ALSF-II TDZ REIL-OMNI
03R 151 ft / 46 m 13,135 ft / 4,004 m 36.87° / 32.25° ASPHALT 984 ft / 300 m 394 ft / 120 m PREC-APP CENTERLINE EDGE THRESHOLD ALSF-II TDZ REIL-OMNI
21L 151 ft / 46 m 13,135 ft / 4,004 m 216.89° / 212.26° ASPHALT 984 ft / 300 m 394 ft / 120 m PREC-APP CENTERLINE EDGE THRESHOLD ALSF-II TDZ REIL-OMNI
21R 151 ft / 46 m 12,478 ft / 3,803 m 216.87° / 212.25° ASPHALT 984 ft / 300 m 394 ft / 120 m PREC-APP CENTERLINE EDGE THRESHOLD ALSF-II TDZ REIL-OMNI

LGMK

Details ICAO LGMK (JMK)
Name Mikonos
Region Greece
Timezone Europe/Athens (UTC+3.0)
Stats Elevation 404 ft / 123 m (AMSL)
Location 37.435400° 25.348100°
Runways 1
Magnetic Variation 4.740° E

METAR

LGMK 231050Z 06005KT CAVOK 24/14 Q1011

Decode

TAF

Not found

Destination Runways

ID Width Length Bearing (true/mag) Surface Threshold Overrun Markings Lighting
16 98 ft / 30 m 6,423 ft / 1,958 m 160.63° / 155.89° ASPHALT 0 ft / 0 m 200 ft / 61 m APP EDGE THRESHOLD REIL-OMNI
34 98 ft / 30 m 6,423 ft / 1,958 m 340.63° / 335.89° ASPHALT 0 ft / 0 m 200 ft / 61 m APP EDGE THRESHOLD REIL-OMNI

Popular Alternatives